Time;durP1;ratioP1;P1;durP2;ratioP2;P2;SDS_P1;SDS_P2;PMS_P1;PMS_P2;Temp;Humidity;BMP_temperature;BMP_pressure;BME280_temperature;BME280_humidity;BME280_pressure;Samples;Min_cycle;Max_cycle;Signal;HPM_P1;HPM_P2
2022/12/18 00:01:37;;;;;;;21.65;8.65;;;;;;;-5.00;100.00;100858.63;6155782;23;20010;-95
2022/12/18 00:04:08;;;;;;;22.48;8.55;;;;;;;-4.59;100.00;100861.66;6155295;23;20064;-96
2022/12/18 00:06:38;;;;;;;19.63;9.43;;;;;;;-4.40;100.00;100892.94;6148990;23;20017;-96
2022/12/18 00:09:04;;;;;;;15.30;9.07;;;;;;;-4.29;100.00;100862.81;6147569;23;20010;-96
2022/12/18 00:11:31;;;;;;;15.60;8.38;;;;;;;-3.87;100.00;100859.00;6149213;23;20011;-96
2022/12/18 00:14:01;;;;;;;18.50;7.88;;;;;;;-3.50;100.00;100856.75;6147454;23;20005;-96
2022/12/18 00:16:32;;;;;;;15.95;7.93;;;;;;;-3.27;100.00;100861.94;6146678;23;20009;-96
2022/12/18 00:19:01;;;;;;;15.82;8.55;;;;;;;-3.15;100.00;100841.81;6145451;23;20388;-96
2022/12/18 00:21:32;;;;;;;19.52;8.70;;;;;;;-2.86;100.00;100838.56;6146524;23;20001;-96
2022/12/18 00:24:03;;;;;;;14.53;7.77;;;;;;;-2.72;100.00;100831.06;6173751;23;20021;-96
2022/12/18 00:26:31;;;;;;;17.73;8.55;;;;;;;-2.88;100.00;100830.16;6120245;23;20009;-96
2022/12/18 00:29:08;;;;;;;12.25;7.03;;;;;;;-2.71;100.00;100828.53;6147394;23;20040;-96
2022/12/18 00:31:39;;;;;;;11.38;7.03;;;;;;;-2.72;100.00;100833.59;6150046;23;20048;-96
2022/12/18 00:34:05;;;;;;;21.17;8.25;;;;;;;-2.89;100.00;100831.00;6147231;23;20014;-95
2022/12/18 00:36:33;;;;;;;12.88;7.53;;;;;;;-3.03;100.00;100829.25;6144004;23;20016;-94
2022/12/18 00:39:04;;;;;;;17.17;8.60;;;;;;;-3.07;100.00;100832.59;6116399;23;20002;-96
2022/12/18 00:44:16;;;;;;;13.73;7.55;;;;;;;-2.80;100.00;100833.56;6169769;23;20447;-96
2022/12/18 00:46:43;;;;;;;15.05;7.65;;;;;;;-2.92;100.00;100811.63;6141403;23;20005;-95
2022/12/18 00:49:10;;;;;;;16.80;8.10;;;;;;;-2.98;100.00;100803.19;6138978;23;20092;-96
2022/12/18 00:51:35;;;;;;;16.30;7.38;;;;;;;-2.86;100.00;100791.44;6139597;23;20077;-95
2022/12/18 00:54:01;;;;;;;13.63;7.07;;;;;;;-2.99;100.00;100809.06;6140150;23;20013;-96
2022/12/18 00:56:28;;;;;;;14.60;7.40;;;;;;;-3.24;100.00;100796.34;6141603;23;20005;-96
2022/12/18 00:58:57;;;;;;;13.80;7.47;;;;;;;-2.90;100.00;100801.50;6139927;23;20005;-96
2022/12/18 01:01:23;;;;;;;14.60;7.65;;;;;;;-2.91;100.00;100804.88;6140505;23;20001;-96
2022/12/18 01:03:48;;;;;;;15.38;7.53;;;;;;;-2.96;100.00;100773.72;6139692;23;20016;-96
2022/12/18 01:06:15;;;;;;;14.50;8.07;;;;;;;-2.70;100.00;100784.75;6138625;23;20092;-96
2022/12/18 01:08:44;;;;;;;15.60;7.70;;;;;;;-2.49;100.00;100772.97;6142402;23;20006;-96
2022/12/18 01:11:13;;;;;;;13.95;6.90;;;;;;;-2.48;100.00;100773.00;6142170;23;20005;-96
2022/12/18 01:13:39;;;;;;;14.50;7.32;;;;;;;-2.33;100.00;100807.56;6141300;23;20017;-96
2022/12/18 01:16:06;;;;;;;17.15;7.90;;;;;;;-2.49;100.00;100778.03;6140295;23;20009;-96
2022/12/18 01:18:31;;;;;;;14.00;6.60;;;;;;;-2.45;100.00;100785.63;6144601;23;20036;-96
2022/12/18 01:20:58;;;;;;;19.00;7.50;;;;;;;-2.39;100.00;100794.91;6145157;23;20005;-96
2022/12/18 01:23:24;;;;;;;18.55;7.47;;;;;;;-2.16;100.00;100787.34;6146007;23;20040;-95
2022/12/18 01:25:49;;;;;;;13.43;7.28;;;;;;;-2.29;100.00;100796.63;6143175;23;20005;-96
2022/12/18 01:28:15;;;;;;;14.77;8.10;;;;;;;-2.52;100.00;100795.72;6140879;23;20012;-96
2022/12/18 01:30:41;;;;;;;14.25;7.03;;;;;;;-2.53;100.00;100796.59;6142044;23;20005;-96
2022/12/18 01:33:10;;;;;;;12.60;7.53;;;;;;;-2.58;100.00;100789.84;6142403;23;20089;-96
2022/12/18 01:35:43;;;;;;;13.70;7.47;;;;;;;-2.55;100.00;100791.50;6143911;23;20096;-96
2022/12/18 01:38:09;;;;;;;20.48;8.07;;;;;;;-2.32;100.00;100804.19;6144252;23;20021;-96
2022/12/18 01:40:36;;;;;;;16.52;7.53;;;;;;;-1.92;100.00;100789.03;6145207;23;20088;-96
2022/12/18 01:43:02;;;;;;;15.40;7.78;;;;;;;-2.03;100.00;100790.72;6142939;23;20005;-96
2022/12/18 01:45:30;;;;;;;18.77;8.48;;;;;;;-2.16;100.00;100798.31;6142431;23;20089;-96
2022/12/18 01:48:02;;;;;;;17.67;7.55;;;;;;;-2.05;100.00;100810.97;6141642;23;20001;-96
2022/12/18 01:50:40;;;;;;;17.98;8.15;;;;;;;-2.12;100.00;100795.75;6142237;23;20065;-95
2022/12/18 01:53:19;;;;;;;15.82;8.05;;;;;;;-2.11;100.00;100795.78;6143239;23;20006;-96
2022/12/18 01:55:53;;;;;;;22.00;7.82;;;;;;;-1.90;100.00;100784.81;6147169;23;20005;-96
2022/12/18 01:58:23;;;;;;;19.80;9.07;;;;;;;-1.92;100.00;100788.19;6146225;23;20516;-96
2022/12/18 02:00:49;;;;;;;18.98;9.05;;;;;;;-1.94;100.00;100783.97;6146780;23;20531;-96
2022/12/18 02:03:14;;;;;;;20.80;10.20;;;;;;;-2.04;100.00;100777.22;6144306;23;20005;-96
2022/12/18 02:06:03;;;;;;;17.15;7.93;;;;;;;-1.75;100.00;100774.69;6145352;23;20040;-96
2022/12/18 02:08:38;;;;;;;16.20;9.05;;;;;;;-1.85;100.00;100765.41;6142816;23;20006;-95
2022/12/18 02:11:44;;;;;;;16.08;7.90;;;;;;;-1.76;100.00;100795.75;6141370;23;20014;-96
2022/12/18 02:14:53;;;;;;;12.57;7.68;;;;;;;-1.81;100.00;100753.59;6143607;23;20006;-96
2022/12/18 02:17:50;;;;;;;14.90;7.88;;;;;;;-1.67;100.00;100740.94;6143196;23;20531;-95
2022/12/18 02:20:49;;;;;;;15.45;8.02;;;;;;;-1.69;100.00;100750.19;6146630;23;20076;-95
2022/12/18 02:23:35;;;;;;;16.08;7.80;;;;;;;-1.61;100.00;100738.38;6159869;23;20009;-96
2022/12/18 02:26:13;;;;;;;14.32;7.60;;;;;;;-1.26;100.00;100778.78;6149508;23;20036;-96
2022/12/18 02:28:52;;;;;;;17.55;7.78;;;;;;;-1.49;100.00;100756.03;6146650;23;20005;-96
2022/12/18 02:31:25;;;;;;;15.40;7.63;;;;;;;-1.44;100.00;100756.91;6145144;23;20009;-96
2022/12/18 02:33:56;;;;;;;12.73;7.93;;;;;;;-1.41;100.00;100754.34;6146395;23;20017;-96
2022/12/18 02:36:28;;;;;;;13.65;6.95;;;;;;;-1.47;100.00;100751.81;6169989;23;20013;-96
2022/12/18 02:38:55;;;;;;;19.17;9.07;;;;;;;-1.48;100.00;100757.75;6144317;23;20017;-96
2022/12/18 02:41:23;;;;;;;12.73;6.68;;;;;;;-1.25;100.00;100784.69;6147436;23;20005;-96
2022/12/18 02:43:57;;;;;;;15.05;8.52;;;;;;;-1.39;100.00;100751.78;6145836;23;20005;-96
2022/12/18 02:46:45;;;;;;;11.55;6.97;;;;;;;-1.19;100.00;100742.44;6173491;23;20006;-96
2022/12/18 02:50:02;;;;;;;13.35;7.45;;;;;;;-0.82;100.00;100784.50;6143968;23;20034;-96
2022/12/18 02:52:42;;;;;;;12.07;6.68;;;;;;;-0.70;100.00;100784.44;6020207;23;20063;-96
2022/12/18 02:55:23;;;;;;;13.55;7.18;;;;;;;-0.87;100.00;100742.28;6142403;23;20001;-96
2022/12/18 02:58:26;;;;;;;15.73;8.23;;;;;;;-0.69;100.00;100775.97;6141664;23;20005;-96
2022/12/18 03:01:03;;;;;;;20.27;9.00;;;;;;;-0.89;100.00;100749.03;6138670;23;20006;-96
2022/12/18 03:03:36;;;;;;;14.32;7.35;;;;;;;-0.92;100.00;100735.56;6139403;23;20059;-96
2022/12/18 03:06:15;;;;;;;16.25;8.05;;;;;;;-0.97;100.00;100730.53;6140055;23;20006;-96
2022/12/18 03:08:46;;;;;;;13.73;8.25;;;;;;;-0.90;100.00;100734.72;6140963;23;20009;-96
2022/12/18 03:11:13;;;;;;;13.93;8.13;;;;;;;-0.88;100.00;100729.63;6141260;23;20010;-96
2022/12/18 03:13:55;;;;;;;22.00;8.48;;;;;;;-0.68;100.00;100762.47;6141298;23;20001;-96
2022/12/18 03:16:26;;;;;;;;;;;;;;;-0.63;100.00;100758.22;6140608;23;20017;-96
2022/12/18 03:18:58;;;;;;;17.13;8.63;;;;;;;-0.87;100.00;100732.16;6138507;23;19932;-96
2022/12/18 03:21:29;;;;;;;;;;;;;;;-0.58;100.00;100769.16;6140265;23;20009;-96
2022/12/18 03:23:55;;;;;;;14.13;8.20;;;;;;;-0.72;100.00;100730.38;6136132;23;19908;-96
2022/12/18 03:26:28;;;;;;;20.30;8.57;;;;;;;-0.68;100.00;100729.50;6141861;23;20010;-96
2022/12/18 03:29:02;;;;;;;17.73;9.93;;;;;;;-0.67;100.00;100714.28;6138787;23;20436;-96
2022/12/18 03:31:31;;;;;;;17.85;8.88;;;;;;;-0.64;100.00;100728.63;6138166;23;20001;-96
2022/12/18 03:34:05;;;;;;;20.65;9.25;;;;;;;-0.61;100.00;100717.63;6137935;23;20002;-96
2022/12/18 03:36:31;;;;;;;22.80;9.18;;;;;;;-0.43;100.00;100722.56;6139368;23;20048;-96
2022/12/18 03:39:01;;;;;;;19.38;10.00;;;;;;;-0.48;100.00;100709.91;6139011;23;20089;-96
2022/12/18 03:41:55;;;;;;;18.13;9.52;;;;;;;-0.49;100.00;100707.38;6137816;23;20009;-96
2022/12/18 03:44:40;;;;;;;25.27;10.18;;;;;;;-0.48;100.00;100694.72;6161984;23;20002;-96
2022/12/18 03:47:19;;;;;;;18.50;10.13;;;;;;;-0.45;100.00;100693.84;6136617;23;20085;-96
2022/12/18 03:50:08;;;;;;;15.25;9.80;;;;;;;-0.47;100.00;100693.00;6136559;23;20332;-96
2022/12/18 03:52:45;;;;;;;21.75;10.82;;;;;;;-0.47;100.00;100696.38;6136716;23;20088;-96
2022/12/18 03:55:12;;;;;;;20.45;10.32;;;;;;;-0.48;100.00;100699.78;6132983;23;20010;-96
2022/12/18 03:57:39;;;;;;;24.95;10.75;;;;;;;-0.37;100.00;100702.22;6136851;23;20009;-96
2022/12/18 04:00:13;;;;;;;20.90;11.60;;;;;;;-0.47;100.00;100688.78;6142055;23;19997;-96
2022/12/18 04:02:44;;;;;;;20.58;10.15;;;;;;;-0.41;100.00;100685.38;6139310;23;20539;-96
2022/12/18 04:05:12;;;;;;;;;;;;;;;-0.26;100.00;100692.84;6137353;23;20005;-96
2022/12/18 04:07:38;;;;;;;19.30;10.60;;;;;;;-0.46;100.00;100649.06;6135927;23;20374;-96
2022/12/18 04:10:06;;;;;;;20.05;10.85;;;;;;;-0.48;100.00;100644.00;6137717;23;20006;-96
2022/12/18 04:12:32;;;;;;;21.83;11.57;;;;;;;-0.41;100.00;100628.72;6139594;23;20001;-96
2022/12/18 04:14:59;;;;;;;23.13;12.45;;;;;;;-0.45;100.00;100628.75;6138973;23;20016;-96
2022/12/18 04:17:25;;;;;;;25.15;12.32;;;;;;;-0.44;100.00;100615.25;6138142;23;20009;-95
2022/12/18 04:19:51;;;;;;;23.38;12.27;;;;;;;-0.33;100.00;100624.44;6135592;23;20084;-96
2022/12/18 04:22:16;;;;;;;24.27;12.25;;;;;;;-0.37;100.00;100605.00;6135813;23;20009;-95
2022/12/18 04:24:42;;;;;;;20.50;12.05;;;;;;;-0.28;100.00;100617.63;6138942;23;20009;-95
2022/12/18 04:27:07;;;;;;;29.95;13.05;;;;;;;-0.45;100.00;100605.09;6141909;23;20009;-96
2022/12/18 04:29:33;;;;;;;28.00;13.43;;;;;;;-0.39;100.00;100596.56;6146794;23;20037;-95
2022/12/18 04:31:59;;;;;;;21.55;11.68;;;;;;;-0.37;100.00;100595.72;6144935;23;20021;-95
2022/12/18 04:34:25;;;;;;;21.90;11.30;;;;;;;-0.37;100.00;100588.09;6147071;23;20006;-95
2022/12/18 04:36:50;;;;;;;22.55;13.77;;;;;;;-0.45;100.00;100584.81;6139739;23;20012;-96
2022/12/18 04:39:16;;;;;;;22.38;11.52;;;;;;;-0.38;100.00;100600.81;6137118;23;20033;-96
2022/12/18 04:41:42;;;;;;;24.95;11.18;;;;;;;-0.49;100.00;100593.28;6142435;23;20013;-96
2022/12/18 04:44:10;;;;;;;32.33;12.48;;;;;;;-0.46;100.00;100590.75;6140858;23;20009;-96
2022/12/18 04:46:37;;;;;;;23.88;12.77;;;;;;;-0.24;100.00;100606.59;6139821;23;20001;-95
2022/12/18 04:49:03;;;;;;;25.17;12.55;;;;;;;-0.44;100.00;100564.53;6136746;23;20010;-96
2022/12/18 04:51:29;;;;;;;31.08;13.95;;;;;;;-0.19;100.00;100606.53;6139091;23;20012;-96
2022/12/18 04:53:55;;;;;;;28.73;13.77;;;;;;;-0.50;100.00;100572.19;6138666;23;20037;-96
2022/12/18 04:56:20;;;;;;;27.23;14.50;;;;;;;-0.46;100.00;100578.91;6141962;23;20072;-96
2022/12/18 04:58:46;;;;;;;34.28;16.30;;;;;;;-0.43;100.00;100571.25;6143461;23;20064;-96
2022/12/18 05:01:17;;;;;;;26.52;14.63;;;;;;;-0.49;100.00;100570.47;6167362;23;20006;-96
2022/12/18 05:03:43;;;;;;;29.17;13.88;;;;;;;-0.43;100.00;100570.44;6142757;23;20037;-96
2022/12/18 05:06:51;;;;;;;26.98;14.07;;;;;;;-0.46;100.00;100561.16;6151802;23;20009;-96
2022/12/18 05:34:06;;;;;;;30.20;14.15;;;;;;;-0.02;100.00;100471.03;6155558;23;20009;-96
2022/12/18 05:36:55;;;;;;;32.63;15.63;;;;;;;-0.06;100.00;100469.38;6170459;23;20014;-96
2022/12/18 05:45:21;;;;;;;29.27;14.88;;;;;;;0.01;100.00;100470.13;6179694;23;20020;-96
2022/12/18 05:47:49;;;;;;;27.35;14.65;;;;;;;0.05;100.00;100465.84;6075146;23;20022;-96
2022/12/18 05:50:45;;;;;;;34.00;14.60;;;;;;;0.21;100.00;100487.63;6088695;23;20014;-96
2022/12/18 05:53:13;;;;;;;30.25;13.65;;;;;;;0.17;100.00;100469.06;6117847;23;19998;-96
2022/12/18 05:55:40;;;;;;;26.52;14.30;;;;;;;0.09;100.00;100460.72;6114141;23;20058;-95
2022/12/18 05:58:17;;;;;;;33.75;18.35;;;;;;;0.29;100.00;100488.34;6110310;23;20006;-95
2022/12/18 06:00:46;;;;;;;28.30;15.95;;;;;;;0.08;100.00;100450.59;6115871;23;20010;-96
2022/12/18 06:03:14;;;;;;;29.33;15.65;;;;;;;0.08;100.00;100438.75;6110836;23;20006;-96
2022/12/18 06:05:43;;;;;;;30.60;15.13;;;;;;;0.06;100.00;100437.91;6108647;23;20008;-96
2022/12/18 06:08:10;;;;;;;27.13;14.25;;;;;;;0.13;100.00;100454.75;6110393;23;20002;-96
2022/12/18 06:10:37;;;;;;;29.23;14.70;;;;;;;0.21;100.00;100436.84;6136924;23;20024;-96
2022/12/18 06:13:04;;;;;;;32.85;15.27;;;;;;;0.18;100.00;100432.66;6109088;23;20036;-96
2022/12/18 06:15:30;;;;;;;34.80;15.25;;;;;;;0.30;100.00;100446.88;6110310;23;20022;-96
2022/12/18 06:17:55;;;;;;;27.63;14.82;;;;;;;0.25;100.00;100438.50;6134048;23;20037;-96
2022/12/18 06:20:22;;;;;;;31.08;15.43;;;;;;;0.33;100.00;100456.16;6107087;23;20053;-94
2022/12/18 06:22:47;;;;;;;29.63;13.60;;;;;;;0.38;99.96;100455.22;6106487;23;20010;-96
2022/12/18 06:25:13;;;;;;;26.40;13.80;;;;;;;0.39;100.00;100440.81;6131500;23;20088;-96
2022/12/18 06:27:39;;;;;;;29.42;14.43;;;;;;;0.43;99.81;100434.81;6131578;23;20006;-96
2022/12/18 06:30:05;;;;;;;29.65;14.68;;;;;;;0.60;100.00;100455.72;6130935;23;20070;-96
2022/12/18 06:32:31;;;;;;;29.05;14.70;;;;;;;0.61;98.97;100443.84;6106049;23;20006;-96
2022/12/18 06:34:56;;;;;;;30.08;14.20;;;;;;;0.62;98.67;100437.91;6130867;23;20057;-96
2022/12/18 06:37:25;;;;;;;29.75;14.55;;;;;;;0.66;98.05;100444.63;6130968;23;20040;-96
2022/12/18 06:39:56;;;;;;;27.08;13.25;;;;;;;0.56;98.88;100443.94;6107599;23;20006;-96
2022/12/18 06:42:22;;;;;;;25.85;14.13;;;;;;;0.61;98.69;100441.28;6105484;23;20017;-96
2022/12/18 06:44:47;;;;;;;25.73;13.82;;;;;;;0.57;99.09;100455.75;6129424;23;20010;-96
2022/12/18 06:47:13;;;;;;;25.40;12.82;;;;;;;0.73;97.56;100466.53;6131530;23;20468;-96
2022/12/18 06:49:39;;;;;;;32.47;13.05;;;;;;;0.66;98.30;100485.28;6130342;23;20002;-96
2022/12/18 06:52:04;;;;;;;27.10;11.88;;;;;;;0.71;97.40;100485.16;6105613;23;19993;-96
2022/12/18 06:54:33;;;;;;;32.78;14.73;;;;;;;0.69;97.06;100475.06;6130629;23;20005;-96
2022/12/18 06:56:58;;;;;;;33.65;14.10;;;;;;;0.74;97.46;100488.50;6128848;23;20006;-96
2022/12/18 06:59:24;;;;;;;26.85;12.43;;;;;;;0.69;97.48;100495.38;6128454;23;20060;-96
2022/12/18 07:01:49;;;;;;;30.33;13.65;;;;;;;0.59;98.47;100488.78;6130314;23;20480;-96
2022/12/18 07:04:15;;;;;;;29.05;12.90;;;;;;;0.73;98.29;100497.00;6106104;23;20081;-96
2022/12/18 07:06:41;;;;;;;34.58;14.32;;;;;;;0.70;98.05;100489.41;6105769;23;20336;-96
2022/12/18 07:09:06;;;;;;;22.92;12.95;;;;;;;0.64;98.50;100487.81;6129828;23;20318;-95
2022/12/18 07:11:35;;;;;;;29.90;15.18;;;;;;;0.63;98.10;100481.06;6129823;23;20041;-96
2022/12/18 07:14:01;;;;;;;24.77;13.77;;;;;;;0.67;98.14;100470.84;6104727;23;20037;-96
2022/12/18 07:16:28;;;;;;;28.13;12.30;;;;;;;0.77;97.40;100459.69;6106239;23;20013;-96
2022/12/18 07:18:56;;;;;;;25.48;11.48;;;;;;;0.83;96.57;100457.03;6104342;23;20002;-96
2022/12/18 07:21:24;;;;;;;23.63;12.57;;;;;;;0.79;96.19;100451.16;6107451;23;20022;-96
2022/12/18 07:23:49;;;;;;;23.08;12.82;;;;;;;0.89;95.72;100446.75;6105487;23;20017;-96
2022/12/18 07:26:18;;;;;;;29.33;12.55;;;;;;;1.01;95.75;100471.13;6129507;23;20413;-96
2022/12/18 07:28:44;;;;;;;21.67;11.05;;;;;;;0.95;95.98;100461.06;6104454;23;20002;-96
2022/12/18 07:31:12;;;;;;;21.33;12.10;;;;;;;0.89;96.13;100469.63;6106912;23;20014;-96
2022/12/18 07:33:38;;;;;;;30.42;12.00;;;;;;;0.92;96.11;100478.91;6105015;23;20017;-96
2022/12/18 07:36:06;;;;;;;22.77;11.88;;;;;;;0.98;95.06;100461.84;6129372;23;20006;-96
2022/12/18 07:38:32;;;;;;;25.30;11.38;;;;;;;1.04;94.80;100450.72;6104585;23;20462;-96
2022/12/18 07:41:02;;;;;;;22.83;10.93;;;;;;;1.06;94.46;100465.09;6102441;23;20022;-96
2022/12/18 07:43:27;;;;;;;22.05;11.88;;;;;;;0.99;95.07;100457.59;6104239;23;20089;-96
2022/12/18 07:45:53;;;;;;;24.90;10.88;;;;;;;1.07;95.36;100483.72;6103683;23;20006;-96
2022/12/18 07:48:18;;;;;;;29.23;12.32;;;;;;;0.95;95.95;100461.06;6103321;23;20341;-95
2022/12/18 07:50:44;;;;;;;21.08;10.65;;;;;;;0.92;96.63;100463.66;6127929;23;20010;-96
2022/12/18 07:53:10;;;;;;;19.63;10.20;;;;;;;0.91;96.54;100441.66;6128620;23;20033;-96
2022/12/18 07:55:35;;;;;;;28.48;11.38;;;;;;;0.90;96.17;100447.59;6102999;23;20037;-96
2022/12/18 07:58:02;;;;;;;21.25;11.00;;;;;;;0.92;95.85;100461.94;6128800;23;20006;-96
2022/12/18 08:00:28;;;;;;;23.85;11.23;;;;;;;0.93;96.55;100463.66;6103397;23;20009;-96
2022/12/18 08:02:53;;;;;;;21.25;10.98;;;;;;;0.99;97.15;100477.94;6104026;23;20006;-95
2022/12/18 08:05:22;;;;;;;22.13;9.95;;;;;;;0.93;97.43;100478.06;6103476;23;20029;-96
2022/12/18 08:07:48;;;;;;;21.30;10.30;;;;;;;1.02;96.82;100475.34;6103805;23;20005;-95
2022/12/18 08:10:14;;;;;;;17.17;10.30;;;;;;;0.93;97.19;100472.97;6102811;23;20002;-96
2022/12/18 08:12:40;;;;;;;19.55;10.00;;;;;;;1.10;97.20;100493.84;6128885;23;20025;-96
2022/12/18 08:15:06;;;;;;;24.23;10.82;;;;;;;0.93;97.61;100475.50;6104961;23;20033;-96
2022/12/18 08:17:35;;;;;;;22.25;10.57;;;;;;;0.88;98.07;100467.97;6104083;23;20005;-96
2022/12/18 08:20:01;;;;;;;20.52;9.40;;;;;;;1.02;98.67;100475.34;6129275;23;20005;-96
2022/12/18 08:22:27;;;;;;;23.90;10.55;;;;;;;0.93;98.87;100455.19;6103184;23;20076;-96
2022/12/18 08:24:53;;;;;;;20.75;9.07;;;;;;;0.89;99.46;100434.06;6106298;23;20006;-96
2022/12/18 08:27:18;;;;;;;24.30;10.90;;;;;;;0.82;100.00;100429.94;6111764;23;20072;-96
2022/12/18 08:29:44;;;;;;;22.63;10.27;;;;;;;0.89;100.00;100433.22;6132944;23;20333;-95
2022/12/18 08:32:10;;;;;;;21.05;10.63;;;;;;;0.88;100.00;100429.00;6134300;23;20361;-96
2022/12/18 08:34:41;;;;;;;21.25;10.70;;;;;;;0.74;100.00;100427.53;6137256;23;20033;-96
2022/12/18 08:37:37;;;;;;;26.27;11.70;;;;;;;0.75;100.00;100416.50;6116655;23;20775;-96
2022/12/18 10:16:58;;;;;;;35.97;15.82;;;;;;;1.10;100.00;100356.59;6159412;23;19915;-95
2022/12/18 10:19:37;;;;;;;36.40;17.55;;;;;;;1.10;100.00;100356.59;6135337;23;20017;-96
2022/12/18 10:22:24;;;;;;;36.47;17.33;;;;;;;1.14;100.00;100337.00;6144485;23;20080;-96
2022/12/18 11:20:11;;;;;;;35.35;18.85;;;;;;;1.22;100.00;100160.59;6167722;23;19924;-95
2022/12/18 11:52:44;;;;;;;52.22;21.27;;;;;;;1.63;100.00;100074.78;6159373;23;20068;-95
2022/12/18 11:55:20;;;;;;;45.55;21.73;;;;;;;1.80;100.00;100091.31;6072512;23;20014;-96
2022/12/18 11:57:58;;;;;;;55.38;21.10;;;;;;;1.85;100.00;100094.56;6134593;23;20038;-96
2022/12/18 12:00:30;;;;;;;52.47;20.52;;;;;;;1.69;100.00;100069.53;6132667;23;20005;-96
2022/12/18 12:03:15;;;;;;;;;;;;;;;1.85;100.00;100081.84;6133371;23;20093;-96
2022/12/18 12:06:23;;;;;;;45.85;18.63;;;;;;;1.87;100.00;100057.19;6130785;23;19908;-96
2022/12/18 12:08:49;;;;;;;48.83;19.67;;;;;;;1.88;100.00;100054.63;6130889;23;20429;-96
2022/12/18 12:11:56;;;;;;;48.97;19.58;;;;;;;1.95;100.00;100037.44;6130797;23;20055;-92
2022/12/18 12:21:42;;;;;;;60.42;19.88;;;;;;;1.98;100.00;99989.03;6158905;23;20064;-96
2022/12/18 15:36:45;;;;;;;6.57;3.05;;;;;;;-143.29;100.00;62188.47;6158001;23;20052;-94
2022/12/18 15:39:12;;;;;;;5.78;3.38;;;;;;;-143.29;100.00;62188.47;6134994;23;20088;-95
2022/12/18 15:41:38;;;;;;;12.00;4.22;;;;;;;-143.29;100.00;62188.47;6132015;23;20069;-93
2022/12/18 15:44:25;;;;;;;4.00;3.13;;;;;;;-143.29;100.00;62188.47;6132946;23;20408;-94
2022/12/18 15:47:05;;;;;;;9.77;4.00;;;;;;;-143.29;100.00;62188.47;6135628;23;20001;-95
2022/12/18 15:49:30;;;;;;;6.60;3.70;;;;;;;-143.29;100.00;62188.47;6135884;23;19998;-96
2022/12/18 15:52:01;;;;;;;5.22;3.55;;;;;;;-143.29;100.00;62188.47;6136119;23;20008;-95
2022/12/18 15:57:23;;;;;;;4.85;3.17;;;;;;;-143.29;100.00;62188.47;6155782;23;20067;-94
2022/12/18 15:59:49;;;;;;;6.53;3.83;;;;;;;-143.29;100.00;62188.47;6131159;23;20012;-96
2022/12/18 16:02:22;;;;;;;11.13;3.45;;;;;;;-143.29;100.00;62188.47;6131639;23;20344;-94
2022/12/18 16:04:48;;;;;;;8.13;3.80;;;;;;;-143.29;100.00;62188.47;6130602;23;20029;-94
2022/12/18 16:07:14;;;;;;;6.47;3.42;;;;;;;-143.29;100.00;62188.47;6131041;23;20374;-95
2022/12/18 16:09:39;;;;;;;20.63;4.53;;;;;;;-143.29;100.00;62188.47;6132769;23;20020;-94
2022/12/18 16:12:09;;;;;;;10.73;3.55;;;;;;;-143.29;100.00;62188.47;6133291;23;20424;-95
2022/12/18 16:14:35;;;;;;;13.20;3.63;;;;;;;-143.29;100.00;62188.47;6133550;23;20005;-95
2022/12/18 16:17:03;;;;;;;11.32;4.10;;;;;;;-143.29;100.00;62188.47;6133464;23;20020;-95
2022/12/18 16:19:29;;;;;;;9.57;4.03;;;;;;;-143.29;100.00;62188.47;6132001;23;20016;-94
2022/12/18 16:21:57;;;;;;;7.55;4.10;;;;;;;-143.29;100.00;62188.47;6132009;23;20033;-95
2022/12/18 16:24:25;;;;;;;15.00;4.50;;;;;;;-143.29;100.00;62188.47;6132778;23;20002;-95
2022/12/18 16:26:52;;;;;;;9.48;4.30;;;;;;;-143.29;100.00;62188.47;6132232;23;20015;-95
2022/12/18 16:29:24;;;;;;;7.72;3.95;;;;;;;-143.29;100.00;62188.47;6133318;23;20503;-96
2022/12/18 16:31:51;;;;;;;11.05;4.00;;;;;;;-143.29;100.00;62188.47;6133971;23;20006;-96
2022/12/18 16:34:27;;;;;;;9.60;4.20;;;;;;;-143.29;100.00;62188.47;6133022;23;20013;-95
2022/12/18 16:36:54;;;;;;;7.63;4.90;;;;;;;-143.29;100.00;62188.47;6133269;23;20017;-96
2022/12/18 16:39:20;;;;;;;14.60;5.28;;;;;;;-143.29;100.00;62188.47;6133537;23;20304;-95
2022/12/18 16:41:46;;;;;;;18.05;6.55;;;;;;;-143.29;100.00;62188.47;6134826;23;20265;-95
2022/12/18 16:44:13;;;;;;;18.10;5.93;;;;;;;-143.29;100.00;62188.47;6133053;23;20009;-95
2022/12/18 16:46:42;;;;;;;12.93;6.80;;;;;;;-143.29;100.00;62188.47;6132417;23;20010;-96
2022/12/18 16:49:08;;;;;;;19.20;6.00;;;;;;;-143.29;100.00;62188.47;6132444;23;20440;-96
2022/12/18 16:51:34;;;;;;;14.10;5.25;;;;;;;-143.29;100.00;62188.47;6132766;23;20069;-95
2022/12/18 16:54:00;;;;;;;15.68;5.90;;;;;;;-143.29;100.00;62188.47;6134353;23;20001;-95
2022/12/18 16:56:26;;;;;;;10.43;5.63;;;;;;;-143.29;100.00;62188.47;6131712;23;20028;-96
2022/12/18 16:58:53;;;;;;;14.13;4.68;;;;;;;-143.29;100.00;62188.47;6133371;23;20005;-96
2022/12/18 17:01:19;;;;;;;9.38;4.68;;;;;;;-143.29;100.00;62188.47;6135418;23;20010;-96
2022/12/18 17:03:54;;;;;;;10.50;4.88;;;;;;;-143.29;100.00;62188.47;6136292;23;20084;-96
2022/12/18 17:06:25;;;;;;;23.05;6.50;;;;;;;-143.29;100.00;62188.47;6136828;23;20017;-96
2022/12/18 17:08:58;;;;;;;17.13;5.63;;;;;;;-143.29;100.00;62188.47;6135675;23;20084;-96
2022/12/18 17:11:25;;;;;;;7.93;3.88;;;;;;;-143.29;100.00;62188.47;6135502;23;20001;-96
2022/12/18 17:13:51;;;;;;;15.55;5.13;;;;;;;-143.29;100.00;62188.47;6133967;23;20006;-96
2022/12/18 17:16:17;;;;;;;17.25;6.10;;;;;;;-143.29;100.00;62188.47;6133110;23;20467;-96
2022/12/18 17:18:43;;;;;;;16.95;6.43;;;;;;;-143.29;100.00;62188.47;6132555;23;20009;-95
2022/12/18 17:21:10;;;;;;;14.98;5.78;;;;;;;-143.29;100.00;62188.47;6130429;23;20012;-94
2022/12/18 17:23:37;;;;;;;12.18;6.10;;;;;;;-143.29;100.00;62188.47;6130661;23;20005;-96
2022/12/18 17:26:06;;;;;;;10.82;5.25;;;;;;;-143.29;100.00;62188.47;6131254;23;20001;-96
2022/12/18 17:28:31;;;;;;;12.32;4.72;;;;;;;-143.29;100.00;62188.47;6131742;23;20336;-94
2022/12/18 17:30:57;;;;;;;9.55;6.30;;;;;;;-143.29;100.00;62188.47;6131215;23;20001;-95
2022/12/18 17:33:23;;;;;;;17.20;6.68;;;;;;;-143.29;100.00;62188.47;6133160;23;20006;-96
2022/12/18 17:35:49;;;;;;;15.40;6.25;;;;;;;-143.29;100.00;62188.47;6136203;23;20014;-96
2022/12/18 17:38:16;;;;;;;13.63;6.72;;;;;;;-143.29;100.00;62188.47;6134670;23;20009;-96
2022/12/18 17:40:42;;;;;;;11.27;5.50;;;;;;;-143.29;100.00;62188.47;6135229;23;20088;-94
2022/12/18 17:43:09;;;;;;;17.75;7.35;;;;;;;-143.29;100.00;62188.47;6130703;23;20419;-96
2022/12/18 17:45:36;;;;;;;15.02;7.25;;;;;;;-143.29;100.00;62188.47;6130011;23;20010;-96
2022/12/18 17:48:03;;;;;;;19.80;6.78;;;;;;;-143.29;100.00;62188.47;6129366;23;20006;-95
2022/12/18 17:50:29;;;;;;;16.52;7.25;;;;;;;-143.29;100.00;62188.47;6130926;23;20100;-96
2022/12/18 17:52:56;;;;;;;18.45;8.40;;;;;;;-143.29;100.00;62188.47;6131157;23;20451;-94
2022/12/18 17:55:22;;;;;;;18.65;7.93;;;;;;;-143.29;100.00;62188.47;6132226;23;20040;-96
2022/12/18 17:57:47;;;;;;;24.95;7.35;;;;;;;-143.29;100.00;62188.47;6133975;23;20034;-96
2022/12/18 18:00:14;;;;;;;19.65;7.63;;;;;;;-143.29;100.00;62188.47;6136314;23;20014;-96
2022/12/18 18:02:39;;;;;;;19.92;7.88;;;;;;;-143.29;100.00;62188.47;6135463;23;20085;-94
2022/12/18 18:05:05;;;;;;;18.60;7.55;;;;;;;-143.29;100.00;62188.47;6133726;23;20340;-95
2022/12/18 18:07:40;;;;;;;19.40;7.75;;;;;;;-143.29;100.00;62188.47;6136445;23;19994;-96
2022/12/18 18:10:06;;;;;;;22.38;9.18;;;;;;;-143.29;100.00;62188.47;6134590;23;20014;-96
2022/12/18 18:15:21;;;;;;;13.77;7.40;;;;;;;-143.29;100.00;62188.47;6160983;23;20016;-95
2022/12/18 18:17:46;;;;;;;16.88;7.20;;;;;;;-143.29;100.00;62188.47;6138980;23;20010;-96
2022/12/18 18:20:20;;;;;;;16.67;9.05;;;;;;;-143.29;100.00;62188.47;6133673;23;20013;-96
2022/12/18 18:22:58;;;;;;;17.58;7.80;;;;;;;-143.29;100.00;62188.47;6139023;23;20001;-96
2022/12/18 18:25:26;;;;;;;22.65;8.73;;;;;;;-143.29;100.00;62188.47;6136979;23;20006;-96